sensor_id;sensor_type;location;lat;lon;timestamp;pressure;altitude;pressure_sealevel;temperature;humidity
47636;BME280;33364;50.766;15.338;2023-07-16T00:00:04;94660.25;;;23.26;59.01
47636;BME280;33364;50.766;15.338;2023-07-16T00:02:31;94637.88;;;23.22;59.71
47636;BME280;33364;50.766;15.338;2023-07-16T00:04:56;94624.34;;;23.15;60.27
47636;BME280;33364;50.766;15.338;2023-07-16T00:07:22;94616.66;;;23.17;60.53
47636;BME280;33364;50.766;15.338;2023-07-16T00:09:48;94634.78;;;23.20;59.62
47636;BME280;33364;50.766;15.338;2023-07-16T00:12:14;94657.47;;;23.19;60.38
47636;BME280;33364;50.766;15.338;2023-07-16T00:14:40;94654.03;;;23.22;60.08
47636;BME280;33364;50.766;15.338;2023-07-16T00:17:06;94650.16;;;23.20;60.25
47636;BME280;33364;50.766;15.338;2023-07-16T00:19:31;94648.94;;;23.10;60.94
47636;BME280;33364;50.766;15.338;2023-07-16T00:21:57;94644.59;;;22.98;61.69
47636;BME280;33364;50.766;15.338;2023-07-16T00:24:23;94648.00;;;22.92;61.31
47636;BME280;33364;50.766;15.338;2023-07-16T00:26:49;94641.47;;;22.93;61.82
47636;BME280;33364;50.766;15.338;2023-07-16T00:29:15;94653.69;;;22.83;62.14
47636;BME280;33364;50.766;15.338;2023-07-16T00:31:41;94648.06;;;22.99;61.29
47636;BME280;33364;50.766;15.338;2023-07-16T00:34:07;94652.91;;;22.83;62.44
47636;BME280;33364;50.766;15.338;2023-07-16T00:36:33;94653.19;;;22.74;62.65
47636;BME280;33364;50.766;15.338;2023-07-16T00:38:59;94651.78;;;22.50;64.06
47636;BME280;33364;50.766;15.338;2023-07-16T00:41:25;94657.00;;;22.36;64.29
47636;BME280;33364;50.766;15.338;2023-07-16T00:43:51;94654.25;;;22.32;64.32
47636;BME280;33364;50.766;15.338;2023-07-16T00:46:17;94651.44;;;22.22;63.50
47636;BME280;33364;50.766;15.338;2023-07-16T00:48:43;94654.56;;;22.24;64.48
47636;BME280;33364;50.766;15.338;2023-07-16T00:51:10;94653.50;;;22.02;65.04
47636;BME280;33364;50.766;15.338;2023-07-16T00:53:36;94655.56;;;21.86;65.64
47636;BME280;33364;50.766;15.338;2023-07-16T00:56:02;94650.06;;;21.75;66.55
47636;BME280;33364;50.766;15.338;2023-07-16T00:58:28;94649.31;;;21.52;67.70
47636;BME280;33364;50.766;15.338;2023-07-16T01:00:54;94651.31;;;21.55;66.41
47636;BME280;33364;50.766;15.338;2023-07-16T01:03:20;94654.41;;;21.57;66.70
47636;BME280;33364;50.766;15.338;2023-07-16T01:08:21;94667.41;;;21.29;67.79
47636;BME280;33364;50.766;15.338;2023-07-16T01:10:50;94659.97;;;21.19;68.39
47636;BME280;33364;50.766;15.338;2023-07-16T01:13:16;94661.22;;;21.05;69.29
47636;BME280;33364;50.766;15.338;2023-07-16T01:15:43;94655.22;;;21.12;68.58
47636;BME280;33364;50.766;15.338;2023-07-16T01:18:08;94654.22;;;20.97;69.04
47636;BME280;33364;50.766;15.338;2023-07-16T01:20:34;94654.22;;;20.97;69.12
47636;BME280;33364;50.766;15.338;2023-07-16T01:30:43;94669.56;;;20.55;70.70
47636;BME280;33364;50.766;15.338;2023-07-16T01:33:10;94670.94;;;20.68;70.67
47636;BME280;33364;50.766;15.338;2023-07-16T01:35:39;94674.41;;;20.69;70.30
47636;BME280;33364;50.766;15.338;2023-07-16T01:38:08;94670.63;;;20.73;70.41
47636;BME280;33364;50.766;15.338;2023-07-16T01:40:34;94674.81;;;20.71;70.10
47636;BME280;33364;50.766;15.338;2023-07-16T01:43:00;94674.34;;;20.65;71.21
47636;BME280;33364;50.766;15.338;2023-07-16T01:45:26;94676.97;;;20.42;71.38
47636;BME280;33364;50.766;15.338;2023-07-16T01:50:51;94674.56;;;20.56;71.90
47636;BME280;33364;50.766;15.338;2023-07-16T01:53:16;94672.44;;;20.46;71.66
47636;BME280;33364;50.766;15.338;2023-07-16T01:55:42;94677.88;;;20.50;72.09
47636;BME280;33364;50.766;15.338;2023-07-16T01:58:08;94676.69;;;20.47;71.49
47636;BME280;33364;50.766;15.338;2023-07-16T02:00:36;94673.72;;;20.33;72.44
47636;BME280;33364;50.766;15.338;2023-07-16T02:03:01;94667.00;;;20.43;71.28
47636;BME280;33364;50.766;15.338;2023-07-16T02:05:27;94669.06;;;20.30;72.49
47636;BME280;33364;50.766;15.338;2023-07-16T02:07:53;94682.22;;;20.35;72.16
47636;BME280;33364;50.766;15.338;2023-07-16T02:10:19;94729.00;;;20.38;71.88
47636;BME280;33364;50.766;15.338;2023-07-16T02:12:45;94741.28;;;20.39;72.05
47636;BME280;33364;50.766;15.338;2023-07-16T02:15:11;94735.63;;;20.44;71.97
47636;BME280;33364;50.766;15.338;2023-07-16T02:17:36;94765.47;;;20.42;71.83
47636;BME280;33364;50.766;15.338;2023-07-16T02:20:03;94763.78;;;20.53;71.27
47636;BME280;33364;50.766;15.338;2023-07-16T02:22:31;94760.91;;;20.43;72.32
47636;BME280;33364;50.766;15.338;2023-07-16T02:24:58;94763.50;;;20.58;71.55
47636;BME280;33364;50.766;15.338;2023-07-16T02:27:23;94774.69;;;20.60;71.52
47636;BME280;33364;50.766;15.338;2023-07-16T02:29:49;94800.72;;;20.60;72.12
47636;BME280;33364;50.766;15.338;2023-07-16T02:32:15;94791.06;;;20.55;72.34
47636;BME280;33364;50.766;15.338;2023-07-16T02:34:41;94768.88;;;20.39;73.29
47636;BME280;33364;50.766;15.338;2023-07-16T02:37:06;94774.25;;;20.39;72.21
47636;BME280;33364;50.766;15.338;2023-07-16T02:39:32;94807.22;;;20.40;73.15
47636;BME280;33364;50.766;15.338;2023-07-16T02:41:58;94812.84;;;20.35;73.42
47636;BME280;33364;50.766;15.338;2023-07-16T02:44:24;94778.69;;;20.16;74.54
47636;BME280;33364;50.766;15.338;2023-07-16T02:46:49;94796.91;;;20.26;73.39
47636;BME280;33364;50.766;15.338;2023-07-16T02:49:15;94838.34;;;20.29;73.25
47636;BME280;33364;50.766;15.338;2023-07-16T02:51:41;94849.97;;;20.33;73.86
47636;BME280;33364;50.766;15.338;2023-07-16T02:54:07;94837.84;;;20.23;74.54
47636;BME280;33364;50.766;15.338;2023-07-16T02:56:33;94826.16;;;20.31;73.82
47636;BME280;33364;50.766;15.338;2023-07-16T02:58:59;94835.59;;;20.41;72.47
47636;BME280;33364;50.766;15.338;2023-07-16T03:01:24;94848.47;;;20.51;72.71
47636;BME280;33364;50.766;15.338;2023-07-16T03:03:50;94843.22;;;20.58;72.97
47636;BME280;33364;50.766;15.338;2023-07-16T03:06:16;94860.59;;;20.64;73.44
47636;BME280;33364;50.766;15.338;2023-07-16T03:08:42;94870.22;;;20.65;73.72
47636;BME280;33364;50.766;15.338;2023-07-16T03:11:11;94867.47;;;20.61;73.03
47636;BME280;33364;50.766;15.338;2023-07-16T03:13:37;94855.31;;;20.67;73.12
47636;BME280;33364;50.766;15.338;2023-07-16T03:16:03;94868.53;;;20.76;72.65
47636;BME280;33364;50.766;15.338;2023-07-16T03:18:29;94866.47;;;20.70;73.90
47636;BME280;33364;50.766;15.338;2023-07-16T03:20:56;94870.28;;;20.69;73.26
47636;BME280;33364;50.766;15.338;2023-07-16T03:23:23;94869.22;;;20.73;73.23
47636;BME280;33364;50.766;15.338;2023-07-16T03:25:49;94873.63;;;20.81;73.23
47636;BME280;33364;50.766;15.338;2023-07-16T03:28:15;94887.22;;;20.88;73.06
47636;BME280;33364;50.766;15.338;2023-07-16T03:30:46;94894.63;;;20.95;72.30
47636;BME280;33364;50.766;15.338;2023-07-16T03:33:12;94886.72;;;21.02;71.69
47636;BME280;33364;50.766;15.338;2023-07-16T03:35:37;94890.53;;;21.01;72.56
47636;BME280;33364;50.766;15.338;2023-07-16T03:38:03;94893.38;;;21.08;70.93
47636;BME280;33364;50.766;15.338;2023-07-16T03:40:30;94898.53;;;21.17;70.62
47636;BME280;33364;50.766;15.338;2023-07-16T03:42:56;94911.28;;;21.20;71.43
47636;BME280;33364;50.766;15.338;2023-07-16T03:45:21;94913.88;;;21.16;70.85
47636;BME280;33364;50.766;15.338;2023-07-16T03:47:48;94915.59;;;21.24;71.16
47636;BME280;33364;50.766;15.338;2023-07-16T03:50:13;94910.06;;;21.36;69.72
47636;BME280;33364;50.766;15.338;2023-07-16T03:52:39;94915.41;;;21.36;70.35
47636;BME280;33364;50.766;15.338;2023-07-16T03:55:05;94910.50;;;21.38;70.06
47636;BME280;33364;50.766;15.338;2023-07-16T03:57:32;94901.50;;;21.31;71.75
47636;BME280;33364;50.766;15.338;2023-07-16T03:59:58;94905.75;;;21.32;71.17
47636;BME280;33364;50.766;15.338;2023-07-16T04:02:24;94909.56;;;21.31;71.90
47636;BME280;33364;50.766;15.338;2023-07-16T04:04:50;94917.28;;;21.32;71.02
47636;BME280;33364;50.766;15.338;2023-07-16T04:07:17;94926.59;;;21.38;70.17
47636;BME280;33364;50.766;15.338;2023-07-16T04:09:43;94937.84;;;21.44;70.44
47636;BME280;33364;50.766;15.338;2023-07-16T04:12:09;94947.88;;;21.28;72.63
47636;BME280;33364;50.766;15.338;2023-07-16T04:14:34;94953.09;;;21.21;72.88
47636;BME280;33364;50.766;15.338;2023-07-16T04:17:00;94958.19;;;21.26;72.28
47636;BME280;33364;50.766;15.338;2023-07-16T04:19:26;94956.28;;;21.26;71.38
47636;BME280;33364;50.766;15.338;2023-07-16T04:21:52;94949.22;;;21.18;72.67
47636;BME280;33364;50.766;15.338;2023-07-16T04:24:17;94961.59;;;21.23;71.42
47636;BME280;33364;50.766;15.338;2023-07-16T04:26:43;94964.72;;;21.25;72.44
47636;BME280;33364;50.766;15.338;2023-07-16T04:29:09;94971.63;;;21.26;72.46
47636;BME280;33364;50.766;15.338;2023-07-16T04:31:35;94981.38;;;21.15;73.01
47636;BME280;33364;50.766;15.338;2023-07-16T04:34:01;94985.94;;;21.30;72.00
47636;BME280;33364;50.766;15.338;2023-07-16T04:36:26;94993.28;;;21.33;70.69
47636;BME280;33364;50.766;15.338;2023-07-16T04:38:52;94996.47;;;21.38;71.82
47636;BME280;33364;50.766;15.338;2023-07-16T04:41:18;94986.06;;;21.37;70.97
47636;BME280;33364;50.766;15.338;2023-07-16T04:43:44;94982.69;;;21.40;66.99
47636;BME280;33364;50.766;15.338;2023-07-16T04:46:10;94980.56;;;21.49;67.35
47636;BME280;33364;50.766;15.338;2023-07-16T04:48:37;94980.56;;;21.49;67.61
47636;BME280;33364;50.766;15.338;2023-07-16T04:51:03;94972.22;;;21.54;66.70
47636;BME280;33364;50.766;15.338;2023-07-16T04:53:29;94989.16;;;21.58;67.34
47636;BME280;33364;50.766;15.338;2023-07-16T04:55:54;94996.88;;;21.60;66.62
47636;BME280;33364;50.766;15.338;2023-07-16T04:58:22;95004.44;;;21.54;67.84
47636;BME280;33364;50.766;15.338;2023-07-16T05:00:48;95010.75;;;21.62;65.02
47636;BME280;33364;50.766;15.338;2023-07-16T05:03:14;95025.03;;;21.66;65.72
47636;BME280;33364;50.766;15.338;2023-07-16T05:05:40;95026.94;;;21.65;63.64
47636;BME280;33364;50.766;15.338;2023-07-16T05:08:06;95026.22;;;21.68;61.00
47636;BME280;33364;50.766;15.338;2023-07-16T05:10:33;95036.84;;;21.61;60.76
47636;BME280;33364;50.766;15.338;2023-07-16T05:12:58;95036.41;;;21.59;60.94
47636;BME280;33364;50.766;15.338;2023-07-16T05:15:25;95032.88;;;21.55;61.16
47636;BME280;33364;50.766;15.338;2023-07-16T05:17:50;95043.19;;;21.53;62.28
47636;BME280;33364;50.766;15.338;2023-07-16T05:20:16;95038.25;;;21.55;61.37
47636;BME280;33364;50.766;15.338;2023-07-16T05:22:42;95038.41;;;21.62;60.98
47636;BME280;33364;50.766;15.338;2023-07-16T05:25:08;95035.50;;;21.71;61.24
47636;BME280;33364;50.766;15.338;2023-07-16T05:27:34;95040.38;;;21.84;62.09
47636;BME280;33364;50.766;15.338;2023-07-16T05:30:01;95037.34;;;22.05;60.52
47636;BME280;33364;50.766;15.338;2023-07-16T05:32:27;95053.56;;;22.09;60.46
47636;BME280;33364;50.766;15.338;2023-07-16T05:34:53;95048.00;;;22.21;60.53
47636;BME280;33364;50.766;15.338;2023-07-16T05:37:18;95060.72;;;22.01;60.37
47636;BME280;33364;50.766;15.338;2023-07-16T05:39:44;95077.72;;;21.89;61.00
47636;BME280;33364;50.766;15.338;2023-07-16T05:42:10;95086.38;;;21.79;60.98
47636;BME280;33364;50.766;15.338;2023-07-16T05:44:36;95091.19;;;21.70;61.73
47636;BME280;33364;50.766;15.338;2023-07-16T05:47:02;95086.63;;;21.55;61.93
47636;BME280;33364;50.766;15.338;2023-07-16T05:49:28;95077.72;;;21.51;62.05
47636;BME280;33364;50.766;15.338;2023-07-16T05:51:53;95092.00;;;21.55;62.17
47636;BME280;33364;50.766;15.338;2023-07-16T05:54:21;95092.63;;;21.48;62.70
47636;BME280;33364;50.766;15.338;2023-07-16T05:56:47;95127.75;;;21.40;64.68
47636;BME280;33364;50.766;15.338;2023-07-16T05:59:13;95153.06;;;21.07;69.09
47636;BME280;33364;50.766;15.338;2023-07-16T06:01:39;95170.88;;;20.84;71.38
47636;BME280;33364;50.766;15.338;2023-07-16T06:04:04;95183.81;;;20.51;71.60
47636;BME280;33364;50.766;15.338;2023-07-16T06:06:30;95186.09;;;20.37;72.82
47636;BME280;33364;50.766;15.338;2023-07-16T06:08:56;95182.88;;;20.31;72.14
47636;BME280;33364;50.766;15.338;2023-07-16T06:11:22;95193.63;;;20.19;74.72
47636;BME280;33364;50.766;15.338;2023-07-16T06:13:48;95185.28;;;20.08;75.65
47636;BME280;33364;50.766;15.338;2023-07-16T06:16:13;95177.50;;;19.91;76.86
47636;BME280;33364;50.766;15.338;2023-07-16T06:18:40;95159.81;;;20.02;76.39
47636;BME280;33364;50.766;15.338;2023-07-16T06:21:05;95167.16;;;20.05;75.91
47636;BME280;33364;50.766;15.338;2023-07-16T06:23:31;95157.84;;;19.87;78.68
47636;BME280;33364;50.766;15.338;2023-07-16T06:25:57;95152.28;;;19.68;79.33
47636;BME280;33364;50.766;15.338;2023-07-16T06:28:23;95145.16;;;19.72;78.71
47636;BME280;33364;50.766;15.338;2023-07-16T06:30:50;95129.28;;;19.79;78.21
47636;BME280;33364;50.766;15.338;2023-07-16T06:33:18;95117.66;;;19.87;78.08
47636;BME280;33364;50.766;15.338;2023-07-16T06:35:47;95117.66;;;19.87;77.86
47636;BME280;33364;50.766;15.338;2023-07-16T06:38:14;95099.97;;;19.98;77.12
47636;BME280;33364;50.766;15.338;2023-07-16T06:40:45;95111.38;;;19.83;79.97
47636;BME280;33364;50.766;15.338;2023-07-16T06:43:11;95104.44;;;19.94;76.71
47636;BME280;33364;50.766;15.338;2023-07-16T06:45:36;95105.13;;;19.91;78.58
47636;BME280;33364;50.766;15.338;2023-07-16T06:48:02;95080.63;;;19.77;79.78
47636;BME280;33364;50.766;15.338;2023-07-16T06:50:28;95081.56;;;19.85;78.57
47636;BME280;33364;50.766;15.338;2023-07-16T06:52:54;95061.78;;;19.89;78.97
47636;BME280;33364;50.766;15.338;2023-07-16T06:55:20;95056.25;;;19.82;81.08
47636;BME280;33364;50.766;15.338;2023-07-16T06:57:46;95041.28;;;19.81;80.14
47636;BME280;33364;50.766;15.338;2023-07-16T07:00:12;95029.22;;;19.87;78.92
47636;BME280;33364;50.766;15.338;2023-07-16T07:02:38;95014.31;;;19.90;79.65
47636;BME280;33364;50.766;15.338;2023-07-16T07:05:04;95018.44;;;19.71;80.82
47636;BME280;33364;50.766;15.338;2023-07-16T07:07:30;95012.34;;;19.59;81.60
47636;BME280;33364;50.766;15.338;2023-07-16T07:09:56;95003.31;;;19.51;82.51
47636;BME280;33364;50.766;15.338;2023-07-16T07:12:21;95008.59;;;19.48;82.05
47636;BME280;33364;50.766;15.338;2023-07-16T07:14:47;95016.34;;;19.65;80.57
47636;BME280;33364;50.766;15.338;2023-07-16T07:17:14;95014.44;;;19.65;82.62
47636;BME280;33364;50.766;15.338;2023-07-16T07:19:40;95017.31;;;19.72;81.46
47636;BME280;33364;50.766;15.338;2023-07-16T07:22:06;95013.63;;;19.77;81.22
47636;BME280;33364;50.766;15.338;2023-07-16T07:24:32;95010.44;;;19.87;80.00
47636;BME280;33364;50.766;15.338;2023-07-16T07:26:58;95011.59;;;20.02;80.95
47636;BME280;33364;50.766;15.338;2023-07-16T07:29:24;95018.69;;;20.10;79.24
47636;BME280;33364;50.766;15.338;2023-07-16T07:31:52;95013.44;;;20.13;79.17
47636;BME280;33364;50.766;15.338;2023-07-16T07:34:18;95015.75;;;20.15;80.17
47636;BME280;33364;50.766;15.338;2023-07-16T07:36:44;95011.63;;;20.17;79.74
47636;BME280;33364;50.766;15.338;2023-07-16T07:39:10;95016.91;;;20.30;78.80
47636;BME280;33364;50.766;15.338;2023-07-16T07:41:36;95041.38;;;20.28;79.95
47636;BME280;33364;50.766;15.338;2023-07-16T07:44:02;95052.78;;;20.25;79.69
47636;BME280;33364;50.766;15.338;2023-07-16T07:46:28;95047.34;;;20.21;78.79
47636;BME280;33364;50.766;15.338;2023-07-16T07:48:53;95055.78;;;20.36;78.65
47636;BME280;33364;50.766;15.338;2023-07-16T07:51:20;95065.50;;;20.40;79.08
47636;BME280;33364;50.766;15.338;2023-07-16T07:53:46;95067.47;;;20.43;79.90
47636;BME280;33364;50.766;15.338;2023-07-16T07:56:12;95069.56;;;20.50;79.03
47636;BME280;33364;50.766;15.338;2023-07-16T07:58:37;95081.34;;;20.61;79.66
47636;BME280;33364;50.766;15.338;2023-07-16T08:01:07;95083.59;;;20.75;79.19
47636;BME280;33364;50.766;15.338;2023-07-16T08:03:33;95087.84;;;20.76;78.77
47636;BME280;33364;50.766;15.338;2023-07-16T08:05:59;95087.84;;;20.91;77.29
47636;BME280;33364;50.766;15.338;2023-07-16T08:08:25;95085.06;;;21.03;77.01
47636;BME280;33364;50.766;15.338;2023-07-16T08:10:52;95085.47;;;21.05;78.11
47636;BME280;33364;50.766;15.338;2023-07-16T08:13:18;95088.00;;;20.98;79.68
47636;BME280;33364;50.766;15.338;2023-07-16T08:15:44;95102.28;;;21.02;77.79
47636;BME280;33364;50.766;15.338;2023-07-16T08:18:10;95102.28;;;21.02;77.70
47636;BME280;33364;50.766;15.338;2023-07-16T08:20:36;95106.38;;;20.81;77.27
47636;BME280;33364;50.766;15.338;2023-07-16T08:23:02;95106.63;;;20.91;76.55
47636;BME280;33364;50.766;15.338;2023-07-16T08:25:28;95096.75;;;20.95;76.32
47636;BME280;33364;50.766;15.338;2023-07-16T08:27:54;95092.16;;;21.12;76.54
47636;BME280;33364;50.766;15.338;2023-07-16T08:30:21;95100.41;;;21.19;77.19
47636;BME280;33364;50.766;15.338;2023-07-16T08:32:47;95102.28;;;21.02;79.27
47636;BME280;33364;50.766;15.338;2023-07-16T08:35:13;95111.66;;;21.08;76.94
47636;BME280;33364;50.766;15.338;2023-07-16T08:37:45;95116.13;;;21.04;77.97
47636;BME280;33364;50.766;15.338;2023-07-16T08:40:12;95114.97;;;21.18;77.53
47636;BME280;33364;50.766;15.338;2023-07-16T08:42:39;95115.72;;;21.34;80.07
47636;BME280;33364;50.766;15.338;2023-07-16T08:45:06;95116.78;;;21.29;79.56
47636;BME280;33364;50.766;15.338;2023-07-16T08:47:35;95115.81;;;21.22;77.17
47636;BME280;33364;50.766;15.338;2023-07-16T08:50:02;95115.72;;;21.34;77.00
47636;BME280;33364;50.766;15.338;2023-07-16T08:52:28;95114.72;;;21.42;77.24
47636;BME280;33364;50.766;15.338;2023-07-16T08:54:54;95126.03;;;21.32;75.10
47636;BME280;33364;50.766;15.338;2023-07-16T08:57:21;95130.53;;;21.28;75.43
47636;BME280;33364;50.766;15.338;2023-07-16T08:59:49;95147.13;;;21.14;75.83
47636;BME280;33364;50.766;15.338;2023-07-16T09:02:18;95155.66;;;21.51;74.78
47636;BME280;33364;50.766;15.338;2023-07-16T09:04:48;95155.47;;;21.44;74.84
47636;BME280;33364;50.766;15.338;2023-07-16T09:07:15;95158.84;;;21.57;75.74
47636;BME280;33364;50.766;15.338;2023-07-16T09:09:41;95151.41;;;21.34;73.60
47636;BME280;33364;50.766;15.338;2023-07-16T09:12:11;95148.63;;;21.31;76.22
47636;BME280;33364;50.766;15.338;2023-07-16T09:14:40;95145.94;;;21.31;76.50
47636;BME280;33364;50.766;15.338;2023-07-16T09:17:06;95150.81;;;21.41;74.41
47636;BME280;33364;50.766;15.338;2023-07-16T09:19:32;95146.22;;;21.26;74.13
47636;BME280;33364;50.766;15.338;2023-07-16T09:21:58;95147.84;;;21.46;72.28
47636;BME280;33364;50.766;15.338;2023-07-16T09:24:24;95151.31;;;21.97;70.61
47636;BME280;33364;50.766;15.338;2023-07-16T09:26:51;95159.88;;;22.03;70.85
47636;BME280;33364;50.766;15.338;2023-07-16T09:29:18;95150.94;;;22.98;69.30
47636;BME280;33364;50.766;15.338;2023-07-16T09:32:01;95153.44;;;23.56;63.94
47636;BME280;33364;50.766;15.338;2023-07-16T09:34:33;95150.22;;;23.47;63.09
47636;BME280;33364;50.766;15.338;2023-07-16T09:37:00;95160.22;;;23.46;62.87
47636;BME280;33364;50.766;15.338;2023-07-16T09:39:27;95151.84;;;23.06;64.68
47636;BME280;33364;50.766;15.338;2023-07-16T09:41:53;95148.47;;;22.90;63.85
47636;BME280;33364;50.766;15.338;2023-07-16T09:44:19;95161.72;;;22.98;65.97
47636;BME280;33364;50.766;15.338;2023-07-16T09:46:45;95164.13;;;23.26;63.56
47636;BME280;33364;50.766;15.338;2023-07-16T09:49:13;95151.09;;;23.54;61.00
47636;BME280;33364;50.766;15.338;2023-07-16T09:51:39;95159.94;;;23.81;60.21
47636;BME280;33364;50.766;15.338;2023-07-16T09:54:05;95166.59;;;23.38;62.00
47636;BME280;33364;50.766;15.338;2023-07-16T09:56:54;95174.34;;;23.63;62.11
47636;BME280;33364;50.766;15.338;2023-07-16T09:59:23;95175.94;;;23.22;63.17
47636;BME280;33364;50.766;15.338;2023-07-16T10:01:50;95176.38;;;23.99;61.84
47636;BME280;33364;50.766;15.338;2023-07-16T10:04:18;95172.81;;;24.51;59.65
47636;BME280;33364;50.766;15.338;2023-07-16T10:06:54;95171.50;;;24.38;59.46
47636;BME280;33364;50.766;15.338;2023-07-16T10:09:39;95182.16;;;24.57;59.44
47636;BME280;33364;50.766;15.338;2023-07-16T10:12:13;95178.34;;;24.95;59.63
47636;BME280;33364;50.766;15.338;2023-07-16T10:14:44;95175.44;;;25.14;58.72
47636;BME280;33364;50.766;15.338;2023-07-16T10:22:14;95198.81;;;23.77;61.24
47636;BME280;33364;50.766;15.338;2023-07-16T10:24:41;95208.53;;;23.58;62.27
47636;BME280;33364;50.766;15.338;2023-07-16T10:27:07;95209.56;;;23.05;62.87
47636;BME280;33364;50.766;15.338;2023-07-16T10:29:33;95211.09;;;23.06;63.27
47636;BME280;33364;50.766;15.338;2023-07-16T10:32:02;95201.94;;;22.88;63.50
47636;BME280;33364;50.766;15.338;2023-07-16T10:34:28;95210.88;;;22.34;65.91
47636;BME280;33364;50.766;15.338;2023-07-16T10:36:54;95211.72;;;22.38;66.17
47636;BME280;33364;50.766;15.338;2023-07-16T10:39:20;95217.69;;;21.77;68.34
47636;BME280;33364;50.766;15.338;2023-07-16T10:41:46;95220.25;;;21.89;68.42
47636;BME280;33364;50.766;15.338;2023-07-16T10:44:14;95218.81;;;21.76;69.31
47636;BME280;33364;50.766;15.338;2023-07-16T10:46:44;95217.78;;;21.65;69.39
47636;BME280;33364;50.766;15.338;2023-07-16T10:49:10;95215.59;;;21.71;69.88
47636;BME280;33364;50.766;15.338;2023-07-16T10:51:36;95213.88;;;21.63;71.12
47636;BME280;33364;50.766;15.338;2023-07-16T10:54:03;95206.94;;;21.77;71.02
47636;BME280;33364;50.766;15.338;2023-07-16T10:56:34;95209.25;;;21.79;71.11
47636;BME280;33364;50.766;15.338;2023-07-16T10:59:01;95206.16;;;22.12;69.79
47636;BME280;33364;50.766;15.338;2023-07-16T11:01:29;95208.13;;;21.96;69.70
47636;BME280;33364;50.766;15.338;2023-07-16T11:04:07;95205.75;;;22.29;69.81
47636;BME280;33364;50.766;15.338;2023-07-16T11:06:33;95208.19;;;22.72;67.30
47636;BME280;33364;50.766;15.338;2023-07-16T11:09:06;95215.97;;;22.78;66.39
47636;BME280;33364;50.766;15.338;2023-07-16T11:11:32;95205.75;;;22.67;66.95
47636;BME280;33364;50.766;15.338;2023-07-16T11:13:58;95208.31;;;22.60;67.25
47636;BME280;33364;50.766;15.338;2023-07-16T11:16:24;95215.88;;;22.55;66.61
47636;BME280;33364;50.766;15.338;2023-07-16T11:18:51;95212.09;;;22.02;69.46
47636;BME280;33364;50.766;15.338;2023-07-16T11:21:20;95221.34;;;22.20;68.97
47636;BME280;33364;50.766;15.338;2023-07-16T11:23:46;95213.00;;;22.25;68.23
47636;BME280;33364;50.766;15.338;2023-07-16T11:26:11;95210.88;;;22.34;67.76
47636;BME280;33364;50.766;15.338;2023-07-16T11:28:41;95220.41;;;22.31;69.05
47636;BME280;33364;50.766;15.338;2023-07-16T11:31:13;95218.84;;;22.69;67.01
47636;BME280;33364;50.766;15.338;2023-07-16T11:33:49;95221.91;;;22.67;66.08
47636;BME280;33364;50.766;15.338;2023-07-16T11:36:16;95224.06;;;22.78;66.17
47636;BME280;33364;50.766;15.338;2023-07-16T11:38:42;95231.06;;;22.82;67.25
47636;BME280;33364;50.766;15.338;2023-07-16T11:41:08;95218.16;;;22.91;66.26
47636;BME280;33364;50.766;15.338;2023-07-16T11:43:35;95221.03;;;23.02;65.93
47636;BME280;33364;50.766;15.338;2023-07-16T11:46:02;95226.44;;;22.63;65.93
47636;BME280;33364;50.766;15.338;2023-07-16T11:48:28;95223.19;;;22.35;67.88
47636;BME280;33364;50.766;15.338;2023-07-16T11:50:54;95211.06;;;22.64;67.19
47636;BME280;33364;50.766;15.338;2023-07-16T11:53:20;95204.63;;;22.88;65.11
47636;BME280;33364;50.766;15.338;2023-07-16T11:55:46;95206.88;;;22.86;66.17
47636;BME280;33364;50.766;15.338;2023-07-16T11:58:12;95207.47;;;22.76;66.03
47636;BME280;33364;50.766;15.338;2023-07-16T12:00:37;95208.28;;;22.99;66.37
47636;BME280;33364;50.766;15.338;2023-07-16T12:03:03;95210.84;;;23.37;63.96
47636;BME280;33364;50.766;15.338;2023-07-16T12:05:29;95211.16;;;23.78;61.84
47636;BME280;33364;50.766;15.338;2023-07-16T12:07:55;95210.41;;;24.07;60.39
47636;BME280;33364;50.766;15.338;2023-07-16T12:10:21;95211.22;;;23.58;60.69
47636;BME280;33364;50.766;15.338;2023-07-16T12:12:47;95214.78;;;23.63;61.16
47636;BME280;33364;50.766;15.338;2023-07-16T12:15:12;95209.31;;;23.59;60.71
47636;BME280;33364;50.766;15.338;2023-07-16T12:17:38;95215.91;;;23.62;60.25
47636;BME280;33364;50.766;15.338;2023-07-16T12:20:05;95202.63;;;23.49;60.58
47636;BME280;33364;50.766;15.338;2023-07-16T12:22:31;95196.06;;;23.47;62.41
47636;BME280;33364;50.766;15.338;2023-07-16T12:24:57;95202.66;;;23.53;61.02
47636;BME280;33364;50.766;15.338;2023-07-16T12:27:23;95215.84;;;23.35;59.77
47636;BME280;33364;50.766;15.338;2023-07-16T12:29:48;95207.63;;;23.47;60.52
47636;BME280;33364;50.766;15.338;2023-07-16T12:32:15;95214.53;;;23.48;60.33
47636;BME280;33364;50.766;15.338;2023-07-16T12:34:41;95223.63;;;23.40;61.80
47636;BME280;33364;50.766;15.338;2023-07-16T12:37:07;95219.59;;;23.08;60.18
47636;BME280;33364;50.766;15.338;2023-07-16T12:39:33;95215.50;;;22.95;61.72
47636;BME280;33364;50.766;15.338;2023-07-16T12:41:59;95215.06;;;22.89;61.82
47636;BME280;33364;50.766;15.338;2023-07-16T12:44:24;95213.28;;;22.78;61.70
47636;BME280;33364;50.766;15.338;2023-07-16T12:46:50;95210.59;;;22.78;60.63
47636;BME280;33364;50.766;15.338;2023-07-16T12:49:17;95213.47;;;22.69;61.07
47636;BME280;33364;50.766;15.338;2023-07-16T12:51:44;95214.25;;;22.69;64.71
47636;BME280;33364;50.766;15.338;2023-07-16T12:54:09;95215.81;;;22.70;62.75
47636;BME280;33364;50.766;15.338;2023-07-16T12:56:35;95201.91;;;22.68;62.46
47636;BME280;33364;50.766;15.338;2023-07-16T12:59:01;95196.47;;;22.65;63.38
47636;BME280;33364;50.766;15.338;2023-07-16T13:01:27;95206.47;;;22.64;62.89
47636;BME280;33364;50.766;15.338;2023-07-16T13:03:52;95197.09;;;22.97;62.92